Unbenanntes Dokument
Flugplatz Bielefeld Platzwetter

 

Aktuelles Platzwetter am Flugplatz Bielefeld EDLI

16.08.17 ,15:06 Uhr

METAR EDLI 161505Z VRB02KT 9999 23/11 Q1022

 

Windwerte

 

Wolkenuntergrenzen

Wind aktuell:100 ° mit 3 kt
Wind 10 min Extrem:
60 ° bis 270 ° mit 1 kt bis 4 kt
Seitenwindkomponente: -0.2 kt
Wolkengrenze 1:
Wolkengrenze 2:
Wolkengrenze 3:

Webcam

Temperatur

       

Sichtweite:

20.000 Meter

23.5 °C
Taupunkt: 11.5 °C
Luftfeuchtigkeit: 46 %

Luftdruck:

QNH: 1022 hPa (30.18 in Hg)
QFE: 1005 hPa (29.68 in Hg)

Diese Daten werden automatisch ermittelt bzw. übertragen und sind nicht geprüft. Für die Richtigkeit wird daher keine Gewähr übernommen. Sie ersetzen im übrigen nicht die Flugwetterberatung. Alle Zeitangaben beziehen sich auf UTC. Die Seite wird einmal die Minute aktualisiert! Sollten Sie ein ältere Seite haben, so drücken Sie bitte auf den Reload Button Ihres Browsers!